Time;durP1;ratioP1;P1;durP2;ratioP2;P2;SDS_P1;SDS_P2;PMS_P1;PMS_P2;Temp;Humidity;BMP_temperature;BMP_pressure;BME280_temperature;BME280_humidity;BME280_pressure;Samples;Min_cycle;Max_cycle;Signal;HPM_P1;HPM_P2
2022/03/20 00:01:10;;;;;;;18.23;6.57;;;3.70;99.90;;;;;;4995778;28;20050;-77
2022/03/20 00:03:36;;;;;;;10.20;5.95;;;3.70;99.90;;;;;;4994487;28;20400;-77
2022/03/20 00:06:03;;;;;;;10.05;5.88;;;3.60;99.90;;;;;;4995572;28;20046;-77
2022/03/20 00:08:30;;;;;;;10.75;6.10;;;3.50;99.90;;;;;;4995899;28;20049;-77
2022/03/20 00:10:59;;;;;;;10.50;5.35;;;3.50;99.90;;;;;;4995133;28;20050;-77
2022/03/20 00:13:27;;;;;;;11.18;5.45;;;3.50;99.90;;;;;;4994469;28;20038;-77
2022/03/20 00:15:54;;;;;;;15.38;5.38;;;3.40;99.90;;;;;;4994948;28;20077;-77
2022/03/20 00:18:23;;;;;;;13.13;6.57;;;3.30;99.90;;;;;;4995965;28;20085;-77
2022/03/20 00:21:00;;;;;;;12.50;5.30;;;3.30;99.90;;;;;;4995775;28;20070;-77
2022/03/20 00:23:26;;;;;;;17.63;6.18;;;3.20;99.90;;;;;;4995587;28;20054;-77
2022/03/20 00:25:53;;;;;;;13.38;6.43;;;3.20;99.90;;;;;;4995650;28;20035;-77
2022/03/20 00:28:23;;;;;;;19.33;6.40;;;3.70;99.90;;;;;;4995836;28;20039;-77
2022/03/20 00:30:49;;;;;;;12.90;6.35;;;3.10;99.90;;;;;;4995582;28;20496;-77
2022/03/20 00:33:15;;;;;;;14.32;6.60;;;3.10;99.90;;;;;;4995247;28;20046;-77
2022/03/20 00:35:41;;;;;;;17.42;7.05;;;3.00;99.90;;;;;;4994755;28;20042;-77
2022/03/20 00:38:07;;;;;;;15.05;6.15;;;3.00;99.90;;;;;;4994937;28;20134;-77
2022/03/20 00:40:33;;;;;;;15.77;5.93;;;3.40;99.90;;;;;;4996008;28;20050;-77
2022/03/20 00:42:59;;;;;;;13.60;6.30;;;3.40;99.90;;;;;;4994954;28;20050;-77
2022/03/20 00:45:24;;;;;;;16.27;6.05;;;3.10;99.90;;;;;;4995140;28;20053;-77
2022/03/20 00:47:50;;;;;;;12.20;6.15;;;3.10;99.90;;;;;;4994782;28;20117;-77
2022/03/20 00:50:16;;;;;;;10.30;5.80;;;3.20;99.90;;;;;;4994782;28;20038;-77
2022/03/20 00:52:41;;;;;;;18.60;6.60;;;3.20;99.90;;;;;;4993729;28;20073;-77
2022/03/20 00:55:07;;;;;;;14.93;6.60;;;3.20;99.90;;;;;;4994746;28;20039;-77
2022/03/20 00:57:33;;;;;;;13.68;6.88;;;3.30;99.90;;;;;;4994922;28;20054;-77
2022/03/20 00:59:58;;;;;;;10.90;5.47;;;3.30;99.90;;;;;;4994920;28;20035;-77
2022/03/20 01:02:24;;;;;;;15.55;6.88;;;3.30;99.90;;;;;;4994696;28;20050;-77
2022/03/20 01:04:49;;;;;;;12.07;5.65;;;3.40;99.90;;;;;;4994723;28;20112;-77
2022/03/20 01:07:15;;;;;;;9.93;6.10;;;3.40;99.90;;;;;;4994557;28;20489;-77
2022/03/20 01:09:41;;;;;;;8.63;5.45;;;3.40;99.90;;;;;;4994716;28;20047;-77
2022/03/20 01:12:08;;;;;;;12.02;6.15;;;3.40;99.90;;;;;;4994920;28;20039;-77
2022/03/20 01:14:34;;;;;;;14.32;6.10;;;3.40;99.90;;;;;;4993539;28;20043;-77
2022/03/20 01:17:00;;;;;;;17.30;6.90;;;3.40;99.90;;;;;;4994481;28;20047;-77
2022/03/20 01:19:26;;;;;;;14.82;6.63;;;3.50;99.90;;;;;;4994626;28;20045;-78
2022/03/20 01:21:54;;;;;;;14.32;5.68;;;3.30;99.90;;;;;;4994901;28;20452;-77
2022/03/20 01:24:21;;;;;;;13.02;5.85;;;3.30;99.90;;;;;;4994726;28;20057;-77
2022/03/20 01:26:46;;;;;;;19.85;6.95;;;3.30;99.90;;;;;;4994775;28;20046;-76
2022/03/20 01:29:12;;;;;;;15.43;6.30;;;3.10;99.90;;;;;;4995152;28;20468;-77
2022/03/20 01:31:38;;;;;;;11.93;6.18;;;3.20;99.90;;;;;;4994227;28;20404;-77
2022/03/20 01:34:05;;;;;;;11.85;6.53;;;3.20;99.90;;;;;;4992985;28;20046;-78
2022/03/20 01:36:31;;;;;;;13.80;6.20;;;3.10;99.90;;;;;;4994604;28;20046;-77
2022/03/20 01:38:57;;;;;;;15.82;7.00;;;3.00;99.90;;;;;;4994174;28;20408;-77
2022/03/20 01:41:23;;;;;;;16.33;6.35;;;3.50;99.90;;;;;;4994573;28;20042;-77
2022/03/20 01:44:00;;;;;;;12.90;6.47;;;2.90;99.90;;;;;;4994275;28;20489;-77
2022/03/20 01:46:27;;;;;;;17.00;6.88;;;2.90;99.90;;;;;;4994516;28;20046;-78
2022/03/20 01:48:53;;;;;;;12.70;6.82;;;2.90;99.90;;;;;;4995135;28;20050;-78
2022/03/20 01:52:10;;;;;;;23.38;8.27;;;2.80;99.90;;;;;;4994411;28;20048;-77
2022/03/20 01:54:05;;;;;;;12.20;6.68;;;2.70;99.90;;;;;;4994482;28;20046;-77
2022/03/20 01:56:33;;;;;;;19.73;6.88;;;2.70;99.90;;;;;;4994480;28;20050;-77
2022/03/20 01:59:02;;;;;;;13.80;6.82;;;2.80;99.90;;;;;;4993665;28;20065;-77
2022/03/20 02:01:29;;;;;;;15.18;7.13;;;2.60;99.90;;;;;;4995268;28;20062;-77
2022/03/20 02:03:54;;;;;;;16.60;8.05;;;2.50;99.90;;;;;;4994840;28;20096;-78
2022/03/20 02:06:22;;;;;;;11.32;6.07;;;2.50;99.90;;;;;;4997042;28;20125;-77
2022/03/20 02:08:48;;;;;;;19.25;8.82;;;2.60;99.90;;;;;;4996995;28;20042;-77
2022/03/20 02:11:13;;;;;;;13.45;8.18;;;2.60;99.90;;;;;;4998757;28;20053;-77
2022/03/20 02:13:39;;;;;;;21.08;8.43;;;2.60;99.90;;;;;;4999294;28;20046;-78
2022/03/20 02:16:06;;;;;;;16.73;7.47;;;2.60;99.90;;;;;;5002369;28;20042;-77
2022/03/20 02:18:31;;;;;;;19.50;8.02;;;2.60;99.90;;;;;;5002246;28;20046;-79
2022/03/20 02:21:02;;;;;;;16.58;7.45;;;2.50;99.90;;;;;;5001463;28;20042;-78
2022/03/20 02:23:27;;;;;;;15.10;8.15;;;2.50;99.90;;;;;;5002833;28;20054;-78
2022/03/20 02:25:53;;;;;;;18.75;8.45;;;2.50;99.90;;;;;;5001272;28;20042;-78
2022/03/20 02:28:18;;;;;;;14.70;7.93;;;2.50;99.90;;;;;;4999953;28;20070;-78
2022/03/20 02:30:46;;;;;;;13.85;7.60;;;2.50;99.90;;;;;;5002029;28;20042;-78
2022/03/20 02:33:13;;;;;;;16.05;7.45;;;2.50;99.90;;;;;;5001022;28;20042;-78
2022/03/20 02:35:40;;;;;;;20.77;9.70;;;2.50;99.90;;;;;;4997252;28;20054;-79
2022/03/20 02:38:10;;;;;;;19.98;8.23;;;2.40;99.90;;;;;;4997948;28;20046;-78
2022/03/20 02:40:36;;;;;;;14.10;8.30;;;2.40;99.90;;;;;;4997987;28;20038;-78
2022/03/20 02:43:05;;;;;;;14.82;7.88;;;2.40;99.90;;;;;;5034785;22;20050;-84
2022/03/20 02:45:31;;;;;;;18.55;8.30;;;2.60;99.90;;;;;;5028274;28;20092;-84
2022/03/20 02:47:58;;;;;;;16.52;8.75;;;2.70;99.90;;;;;;5023679;28;20522;-84
2022/03/20 02:50:29;;;;;;;18.40;10.80;;;2.60;99.90;;;;;;5033063;28;20571;-83
2022/03/20 02:53:01;;;;;;;19.55;8.50;;;2.50;99.90;;;;;;5034765;28;20052;-84
2022/03/20 02:55:32;;;;;;;24.75;9.50;;;2.60;99.90;;;;;;5035764;28;20041;-84
2022/03/20 02:58:01;;;;;;;18.88;8.55;;;2.50;99.90;;;;;;5035558;28;20084;-84
2022/03/20 03:00:31;;;;;;;20.30;9.43;;;2.50;99.90;;;;;;5029045;28;20041;-84
2022/03/20 03:02:58;;;;;;;17.15;9.38;;;2.50;99.90;;;;;;5015367;28;20061;-84
2022/03/20 03:05:29;;;;;;;16.80;9.45;;;2.50;99.90;;;;;;5015731;28;20125;-84
2022/03/20 03:10:59;;;;;;;20.80;10.13;;;2.50;99.90;;;;;;5015780;28;20057;-84
2022/03/20 03:13:39;;;;;;;15.70;7.20;;;2.60;99.90;;;;;;5015384;28;20038;-84
2022/03/20 03:16:10;;;;;;;18.13;9.10;;;2.40;99.90;;;;;;5013765;28;20045;-84
2022/03/20 03:18:38;;;;;;;17.90;8.00;;;2.40;99.90;;;;;;5030183;28;20041;-85
2022/03/20 03:21:04;;;;;;;20.33;8.73;;;2.40;99.90;;;;;;5034954;28;20103;-84
2022/03/20 03:23:30;;;;;;;23.10;9.65;;;2.30;99.90;;;;;;5035170;28;20045;-84
2022/03/20 03:25:56;;;;;;;19.17;10.88;;;2.40;99.90;;;;;;5033872;28;20369;-85
2022/03/20 03:28:28;;;;;;;18.38;9.27;;;2.40;99.90;;;;;;5033767;28;20045;-85
2022/03/20 03:30:54;;;;;;;20.73;10.35;;;2.40;99.90;;;;;;5035035;28;20042;-84
2022/03/20 03:33:21;;;;;;;18.63;8.88;;;2.40;99.90;;;;;;5033854;28;20549;-84
2022/03/20 03:35:53;;;;;;;20.00;10.18;;;2.30;99.90;;;;;;5034921;28;20049;-85
2022/03/20 03:38:22;;;;;;;23.48;10.65;;;2.10;99.90;;;;;;5035711;28;20116;-85
2022/03/20 03:40:49;;;;;;;22.63;11.02;;;2.30;99.90;;;;;;5034799;28;20048;-84
2022/03/20 03:43:16;;;;;;;16.48;9.10;;;2.20;99.90;;;;;;5040590;28;20059;-84
2022/03/20 03:45:43;;;;;;;20.38;8.98;;;2.30;99.90;;;;;;5045792;28;20037;-84
2022/03/20 03:48:09;;;;;;;23.08;9.48;;;2.10;99.90;;;;;;5050758;28;20109;-85
2022/03/20 03:50:37;;;;;;;22.60;10.20;;;2.10;99.90;;;;;;5037095;28;20055;-84
2022/03/20 03:53:03;;;;;;;23.63;10.57;;;2.10;99.90;;;;;;5037058;28;20065;-84
2022/03/20 03:55:31;;;;;;;24.00;10.82;;;2.10;99.90;;;;;;5025148;28;20129;-84
2022/03/20 03:57:56;;;;;;;15.10;8.60;;;2.00;99.90;;;;;;5029473;28;20040;-85
2022/03/20 04:00:24;;;;;;;26.88;11.27;;;1.90;99.90;;;;;;5026383;28;20097;-84
2022/03/20 04:02:50;;;;;;;22.40;10.23;;;2.00;99.90;;;;;;5018654;28;20117;-84
2022/03/20 04:05:17;;;;;;;23.83;11.55;;;1.80;99.90;;;;;;5016264;28;20034;-85
2022/03/20 04:07:44;;;;;;;22.73;10.68;;;1.70;99.90;;;;;;5017013;28;20045;-85
2022/03/20 04:10:10;;;;;;;24.40;9.80;;;1.70;99.90;;;;;;5017244;28;20049;-84
2022/03/20 04:12:37;;;;;;;21.65;11.32;;;1.70;99.90;;;;;;5016755;28;20049;-84
2022/03/20 04:15:07;;;;;;;21.98;11.60;;;1.80;99.90;;;;;;5016971;28;20056;-85
2022/03/20 04:17:33;;;;;;;24.70;10.48;;;1.80;99.90;;;;;;5017338;28;20041;-85
2022/03/20 04:19:59;;;;;;;24.25;10.70;;;1.90;99.90;;;;;;5017076;28;20045;-85
2022/03/20 04:22:26;;;;;;;16.80;9.23;;;1.80;99.90;;;;;;5016274;28;20065;-85
2022/03/20 04:24:52;;;;;;;25.73;10.55;;;1.80;99.90;;;;;;5016748;28;20046;-85
2022/03/20 04:27:18;;;;;;;22.58;10.23;;;1.70;99.90;;;;;;5016225;28;20056;-84
2022/03/20 04:29:44;;;;;;;21.00;10.77;;;1.70;99.90;;;;;;5016176;28;20046;-84
2022/03/20 04:32:13;;;;;;;22.33;10.25;;;1.90;99.90;;;;;;5016715;28;20083;-84
2022/03/20 04:34:43;;;;;;;22.50;10.30;;;1.80;99.90;;;;;;5016592;28;20056;-85
2022/03/20 04:37:10;;;;;;;27.73;11.88;;;1.70;99.90;;;;;;5015862;28;20124;-85
2022/03/20 04:39:37;;;;;;;22.52;11.60;;;1.80;99.90;;;;;;5016535;28;20041;-85
2022/03/20 04:42:03;;;;;;;19.92;11.27;;;1.80;99.90;;;;;;5016204;28;20046;-84
2022/03/20 04:44:29;;;;;;;19.02;11.70;;;1.90;99.90;;;;;;5015901;28;20096;-84
2022/03/20 04:46:55;;;;;;;24.15;11.93;;;1.70;99.90;;;;;;5016589;28;20053;-84
2022/03/20 05:00:20;;;;;;;20.52;11.30;;;1.60;99.90;;;;;;5015028;28;20061;-84
2022/03/20 05:02:46;;;;;;;23.17;12.68;;;1.50;99.90;;;;;;5013000;28;20056;-84
2022/03/20 05:05:12;;;;;;;23.42;13.15;;;1.60;99.90;;;;;;5014222;28;20145;-84
2022/03/20 05:07:38;;;;;;;25.90;12.38;;;1.50;99.90;;;;;;5013525;28;20046;-84
2022/03/20 05:15:33;;;;;;;22.98;11.98;;;1.30;99.90;;;;;;5013889;28;20050;-84
2022/03/20 05:17:58;;;;;;;22.15;12.40;;;1.30;99.90;;;;;;5013922;28;20046;-84
2022/03/20 05:20:26;;;;;;;27.00;12.05;;;1.20;99.90;;;;;;5014191;28;20512;-84
2022/03/20 05:22:52;;;;;;;26.67;12.85;;;1.20;99.90;;;;;;5013962;28;20122;-84
2022/03/20 05:25:18;;;;;;;26.77;14.50;;;1.30;99.90;;;;;;5013632;28;20069;-84
2022/03/20 05:27:44;;;;;;;23.70;12.68;;;1.10;99.90;;;;;;5013942;28;20085;-84
2022/03/20 05:30:10;;;;;;;24.65;13.10;;;1.00;99.90;;;;;;5013893;28;20045;-84
2022/03/20 05:32:38;;;;;;;26.17;13.98;;;1.00;99.90;;;;;;5013741;28;20145;-84
2022/03/20 05:35:13;;;;;;;24.13;12.43;;;1.10;99.90;;;;;;5012943;28;20396;-84
2022/03/20 05:37:39;;;;;;;20.65;12.18;;;1.20;99.90;;;;;;5013778;28;20056;-84
2022/03/20 05:40:05;;;;;;;29.65;13.52;;;1.30;99.90;;;;;;5014360;28;20140;-83
2022/03/20 05:42:31;;;;;;;23.77;12.27;;;1.20;99.90;;;;;;5015978;28;20519;-83
2022/03/20 05:44:56;;;;;;;26.27;14.00;;;1.30;99.90;;;;;;5017428;28;20054;-84
2022/03/20 05:47:22;;;;;;;22.75;13.43;;;1.20;99.90;;;;;;5017437;28;20050;-84
2022/03/20 05:49:48;;;;;;;20.55;12.15;;;1.20;99.90;;;;;;5016309;28;20120;-84
2022/03/20 05:52:15;;;;;;;24.05;13.40;;;1.30;99.90;;;;;;5006741;28;20165;-84
2022/03/20 05:54:41;;;;;;;22.83;15.00;;;1.20;99.90;;;;;;5038362;28;20069;-83
2022/03/20 05:59:53;;;;;;;28.42;14.75;;;1.30;99.90;;;;;;5034967;28;20117;-83
2022/03/20 06:02:23;;;;;;;26.73;13.95;;;1.40;99.90;;;;;;5017717;28;20050;-84
2022/03/20 06:04:48;;;;;;;28.67;13.50;;;1.40;99.90;;;;;;5018771;28;20045;-84
2022/03/20 06:07:14;;;;;;;21.63;11.75;;;1.50;99.90;;;;;;5017818;28;20033;-83
2022/03/20 06:09:40;;;;;;;20.73;12.38;;;1.50;99.90;;;;;;5017955;28;20069;-84
2022/03/20 06:12:07;;;;;;;19.85;12.13;;;1.40;99.90;;;;;;5017438;28;20045;-84
2022/03/20 06:14:35;;;;;;;19.23;12.02;;;1.60;99.90;;;;;;5017226;28;20058;-84
2022/03/20 06:17:02;;;;;;;34.17;15.02;;;1.60;99.90;;;;;;5016361;28;20049;-84
2022/03/20 06:19:28;;;;;;;30.90;14.25;;;1.60;99.90;;;;;;5015729;28;20038;-84
2022/03/20 06:21:54;;;;;;;29.30;14.80;;;1.70;99.90;;;;;;5015651;28;20100;-84
2022/03/20 06:24:20;;;;;;;29.48;14.65;;;1.70;99.90;;;;;;5015801;28;20046;-84
2022/03/20 06:26:45;;;;;;;24.75;13.57;;;1.70;99.90;;;;;;5015892;28;20455;-84
2022/03/20 06:29:11;;;;;;;32.58;15.68;;;1.70;99.90;;;;;;5015675;28;20042;-84
2022/03/20 06:31:36;;;;;;;25.30;13.48;;;1.70;99.90;;;;;;5016329;28;20046;-84
2022/03/20 06:34:04;;;;;;;29.63;14.70;;;1.80;99.90;;;;;;5016095;28;20046;-84
2022/03/20 06:36:30;;;;;;;24.98;14.32;;;1.80;99.90;;;;;;5014304;28;20053;-84
2022/03/20 06:38:56;;;;;;;25.35;13.50;;;1.90;99.90;;;;;;5016256;28;20045;-84
2022/03/20 06:41:21;;;;;;;24.58;13.77;;;2.00;99.90;;;;;;5015441;28;20038;-84
2022/03/20 06:43:47;;;;;;;30.70;14.10;;;2.00;99.90;;;;;;5015305;28;20046;-85
2022/03/20 06:46:12;;;;;;;24.38;13.18;;;2.10;99.90;;;;;;5015428;28;20529;-84
2022/03/20 06:48:38;;;;;;;28.17;16.48;;;2.10;99.90;;;;;;5015266;28;20045;-84
2022/03/20 06:51:04;;;;;;;23.17;13.77;;;2.20;99.90;;;;;;5015624;28;20131;-84
2022/03/20 06:53:30;;;;;;;28.55;14.40;;;2.30;99.90;;;;;;5015753;28;20057;-84
2022/03/20 06:55:56;;;;;;;21.95;12.00;;;2.30;99.90;;;;;;5014438;28;20053;-84
2022/03/20 06:58:23;;;;;;;27.02;13.32;;;2.30;99.90;;;;;;5013275;28;20042;-84
2022/03/20 07:00:50;;;;;;;25.50;14.82;;;2.40;99.90;;;;;;5013213;28;20042;-84
2022/03/20 07:03:15;;;;;;;23.52;13.32;;;2.40;99.90;;;;;;5012597;28;20468;-84
2022/03/20 07:05:41;;;;;;;23.73;13.82;;;2.50;99.90;;;;;;5011329;28;20081;-84
2022/03/20 07:08:07;;;;;;;25.42;14.05;;;2.50;99.90;;;;;;5012355;28;20053;-85
2022/03/20 07:10:33;;;;;;;29.60;15.02;;;2.60;99.90;;;;;;5012701;28;20042;-85
2022/03/20 07:15:46;;;;;;;31.23;14.52;;;2.70;99.90;;;;;;5012466;28;20072;-85
2022/03/20 07:18:14;;;;;;;27.42;13.68;;;2.70;99.90;;;;;;5012503;28;20463;-85
2022/03/20 07:20:45;;;;;;;27.98;14.02;;;2.80;99.90;;;;;;5012334;28;20049;-84
2022/03/20 07:23:11;;;;;;;28.08;13.52;;;2.90;99.90;;;;;;5012309;28;20038;-85
2022/03/20 07:31:08;;;;;;;26.35;14.95;;;3.10;99.90;;;;;;5012078;28;20137;-85
2022/03/20 07:33:34;;;;;;;25.25;13.13;;;3.10;99.90;;;;;;5012246;28;20120;-84
2022/03/20 07:36:00;;;;;;;22.30;13.43;;;3.20;99.90;;;;;;5012077;28;20423;-84
2022/03/20 07:38:26;;;;;;;19.95;11.65;;;3.20;99.90;;;;;;5012055;28;20049;-85
2022/03/20 07:40:52;;;;;;;25.88;14.02;;;3.30;99.90;;;;;;5011654;28;20052;-85
2022/03/20 07:43:18;;;;;;;29.83;16.48;;;3.40;99.90;;;;;;5011694;28;20424;-85
2022/03/20 07:45:44;;;;;;;24.85;13.93;;;3.40;99.90;;;;;;5011762;28;20062;-84
2022/03/20 07:48:10;;;;;;;27.10;14.25;;;3.50;99.90;;;;;;5011553;28;20068;-85
2022/03/20 07:50:36;;;;;;;24.15;14.63;;;3.60;99.90;;;;;;5011789;28;20045;-85
2022/03/20 07:53:01;;;;;;;25.60;13.43;;;3.70;99.90;;;;;;5010719;28;20484;-84
2022/03/20 07:55:28;;;;;;;27.15;12.93;;;3.80;99.90;;;;;;5010959;28;20045;-84
2022/03/20 07:57:54;;;;;;;31.52;14.73;;;3.90;99.90;;;;;;5008947;28;20045;-84
2022/03/20 08:00:20;;;;;;;24.83;12.07;;;4.00;99.90;;;;;;5011021;28;20045;-84
2022/03/20 08:02:46;;;;;;;31.77;15.10;;;4.00;99.90;;;;;;5010348;28;20412;-84
2022/03/20 08:05:11;;;;;;;27.40;13.35;;;4.00;99.90;;;;;;5010356;28;20046;-85
2022/03/20 08:07:38;;;;;;;25.90;12.77;;;4.20;99.90;;;;;;5010286;28;20439;-84
2022/03/20 08:10:11;;;;;;;22.38;12.80;;;4.00;99.90;;;;;;5008085;28;20140;-84
2022/03/20 08:12:38;;;;;;;27.27;12.63;;;4.20;99.90;;;;;;5010332;28;20037;-85
2022/03/20 08:15:05;;;;;;;24.05;13.63;;;4.30;99.90;;;;;;5010222;28;20053;-84
2022/03/20 08:17:31;;;;;;;28.40;12.80;;;4.40;99.90;;;;;;5010077;28;20129;-84
2022/03/20 08:19:57;;;;;;;29.83;12.95;;;4.50;99.90;;;;;;5010085;28;20468;-85
2022/03/20 08:22:25;;;;;;;28.50;13.82;;;4.60;99.90;;;;;;5011047;28;20050;-85
2022/03/20 08:24:51;;;;;;;23.55;14.27;;;4.70;99.90;;;;;;5010809;28;20053;-84
2022/03/20 08:27:19;;;;;;;28.30;13.73;;;4.80;99.90;;;;;;5010715;28;20196;-84
2022/03/20 08:29:44;;;;;;;23.08;11.07;;;4.90;99.90;;;;;;5010628;28;20096;-85
2022/03/20 08:32:10;;;;;;;24.95;13.32;;;5.00;99.90;;;;;;5011116;28;20045;-85
2022/03/20 08:34:36;;;;;;;29.60;15.77;;;5.30;99.90;;;;;;5010763;28;20056;-85
2022/03/20 08:37:01;;;;;;;22.58;14.07;;;5.20;99.90;;;;;;5012007;28;20049;-85
2022/03/20 08:39:27;;;;;;;24.02;13.27;;;5.20;99.90;;;;;;5011417;28;20041;-84
2022/03/20 08:41:53;;;;;;;25.27;14.32;;;5.30;99.90;;;;;;5010835;28;20038;-85
2022/03/20 08:44:18;;;;;;;26.50;12.43;;;5.40;99.90;;;;;;5011645;28;20508;-84
2022/03/20 08:46:45;;;;;;;26.48;14.52;;;5.40;99.90;;;;;;5010535;28;20041;-84
2022/03/20 08:49:10;;;;;;;28.25;15.73;;;5.50;99.90;;;;;;5010114;28;20046;-84
2022/03/20 08:51:40;;;;;;;20.77;13.15;;;5.60;99.90;;;;;;5010258;28;20403;-84
2022/03/20 08:54:06;;;;;;;28.17;14.75;;;5.70;99.90;;;;;;5010138;28;20046;-84
2022/03/20 08:56:33;;;;;;;20.05;13.48;;;5.90;99.90;;;;;;5010412;28;20141;-84
2022/03/20 08:58:58;;;;;;;24.02;14.40;;;5.80;99.20;;;;;;5010097;28;20046;-84
2022/03/20 09:01:24;;;;;;;27.83;14.43;;;5.90;98.30;;;;;;5010331;28;20046;-84
2022/03/20 09:03:50;;;;;;;25.73;14.40;;;5.90;98.00;;;;;;5010567;28;20088;-85
2022/03/20 09:06:17;;;;;;;28.23;14.40;;;6.10;97.50;;;;;;5010183;28;20045;-84
2022/03/20 09:08:43;;;;;;;26.27;14.85;;;6.10;95.50;;;;;;5011086;28;20045;-84
2022/03/20 09:11:09;;;;;;;25.15;14.43;;;6.10;96.80;;;;;;5010025;28;20428;-84
2022/03/20 09:13:35;;;;;;;25.58;15.65;;;6.40;99.40;;;;;;5010964;28;20393;-84
2022/03/20 09:19:03;;;;;;;26.80;13.40;;;7.20;89.50;;;;;;5016163;28;20095;-83
2022/03/20 09:21:32;;;;;;;25.05;13.73;;;7.20;80.00;;;;;;5016298;28;20077;-83
2022/03/20 09:23:58;;;;;;;29.00;16.60;;;7.30;78.20;;;;;;5014172;28;20046;-82
2022/03/20 09:26:24;;;;;;;32.55;15.73;;;7.20;76.90;;;;;;5015415;28;20044;-83
2022/03/20 09:28:50;;;;;;;31.17;16.38;;;7.20;75.50;;;;;;5015462;28;20041;-84
2022/03/20 09:31:16;;;;;;;24.55;14.75;;;7.40;77.00;;;;;;5015429;28;20138;-83
2022/03/20 09:33:42;;;;;;;25.23;13.90;;;7.40;73.70;;;;;;5014411;28;20404;-83
2022/03/20 09:36:08;;;;;;;25.83;15.25;;;7.60;72.60;;;;;;5013687;28;20042;-83
2022/03/20 09:38:35;;;;;;;27.48;17.42;;;7.80;70.40;;;;;;5014294;28;20073;-83
2022/03/20 09:41:07;;;;;;;26.48;14.82;;;7.70;68.50;;;;;;5014385;28;20044;-83
2022/03/20 09:43:33;;;;;;;27.30;16.50;;;7.90;74.90;;;;;;5013089;28;20100;-83
2022/03/20 09:46:00;;;;;;;27.17;16.45;;;8.20;66.60;;;;;;5013449;28;20052;-83
2022/03/20 09:48:27;;;;;;;25.58;13.15;;;8.40;65.30;;;;;;5013264;28;20081;-83
2022/03/20 09:50:52;;;;;;;26.60;14.95;;;8.30;57.60;;;;;;5015213;28;20050;-83
2022/03/20 09:53:19;;;;;;;27.23;14.32;;;8.20;57.50;;;;;;5016227;28;20415;-83
2022/03/20 09:55:46;;;;;;;27.70;15.00;;;8.10;56.60;;;;;;5016534;28;20521;-83
2022/03/20 09:58:11;;;;;;;29.83;18.52;;;8.00;57.40;;;;;;5016130;28;20052;-83
2022/03/20 10:00:37;;;;;;;23.90;15.05;;;8.10;61.30;;;;;;5016436;28;20046;-83
2022/03/20 10:03:20;;;;;;;27.25;16.58;;;8.10;59.60;;;;;;5016895;28;20492;-83
2022/03/20 10:06:09;;;;;;;25.58;14.90;;;8.40;58.60;;;;;;5016884;28;20073;-83
2022/03/20 10:08:35;;;;;;;29.00;14.75;;;8.40;56.40;;;;;;5017235;28;20061;-83
2022/03/20 10:11:15;;;;;;;28.08;15.55;;;8.50;55.00;;;;;;5017489;28;20049;-84
2022/03/20 10:14:05;;;;;;;29.50;18.92;;;8.50;53.10;;;;;;5017058;28;20128;-84
2022/03/20 10:16:30;;;;;;;26.50;16.67;;;8.60;53.60;;;;;;5017772;28;20042;-84
2022/03/20 10:18:56;;;;;;;25.23;13.13;;;8.60;50.80;;;;;;5017299;28;20373;-84
2022/03/20 10:21:22;;;;;;;28.95;15.93;;;8.80;48.90;;;;;;5018716;28;20042;-84
2022/03/20 10:23:47;;;;;;;26.23;14.85;;;8.80;49.10;;;;;;5019060;28;20072;-84
2022/03/20 10:26:17;;;;;;;26.67;17.08;;;8.60;48.30;;;;;;5018449;28;20037;-84
2022/03/20 10:28:53;;;;;;;26.63;16.08;;;8.70;47.30;;;;;;5017452;28;20053;-84
2022/03/20 10:31:20;;;;;;;25.70;14.82;;;8.90;48.90;;;;;;5017702;28;20056;-84
2022/03/20 10:34:05;;;;;;;21.65;13.00;;;9.10;47.40;;;;;;5017665;28;20040;-83
2022/03/20 10:36:33;;;;;;;26.75;17.20;;;9.10;45.90;;;;;;5017086;28;20103;-84
2022/03/20 10:38:59;;;;;;;30.05;16.05;;;9.20;45.10;;;;;;5017819;28;20057;-83
2022/03/20 10:41:38;;;;;;;31.15;17.75;;;9.50;46.30;;;;;;5017509;28;20034;-83
2022/03/20 10:44:17;;;;;;;24.23;14.50;;;9.40;41.80;;;;;;5019331;28;20062;-84
2022/03/20 10:46:43;;;;;;;26.50;16.95;;;9.40;41.20;;;;;;5017519;28;20053;-84
2022/03/20 10:49:20;;;;;;;26.98;15.48;;;9.40;40.80;;;;;;5017955;28;20056;-84
2022/03/20 10:51:59;;;;;;;28.60;15.52;;;9.50;41.50;;;;;;5016187;28;20173;-84
2022/03/20 10:54:38;;;;;;;29.35;17.88;;;9.50;39.80;;;;;;5017788;28;20054;-84
2022/03/20 10:57:06;;;;;;;27.55;15.52;;;9.60;40.80;;;;;;5017730;28;20060;-84
2022/03/20 10:59:32;;;;;;;24.98;15.65;;;9.70;39.30;;;;;;5018620;28;20060;-84
2022/03/20 11:01:58;;;;;;;30.48;17.67;;;9.50;37.70;;;;;;5019056;28;20053;-84
2022/03/20 11:04:24;;;;;;;22.70;13.85;;;9.70;39.10;;;;;;5017105;28;20053;-84
2022/03/20 11:06:54;;;;;;;25.98;16.58;;;9.90;37.40;;;;;;5017885;28;20073;-84
2022/03/20 11:09:20;;;;;;;35.33;16.98;;;9.90;36.90;;;;;;5015720;28;20510;-85
2022/03/20 11:11:49;;;;;;;32.35;19.17;;;10.10;37.60;;;;;;5016615;28;20057;-84
2022/03/20 11:14:18;;;;;;;30.85;16.15;;;10.10;38.30;;;;;;5016554;28;20100;-85
2022/03/20 11:16:48;;;;;;;33.85;17.23;;;10.10;36.60;;;;;;5016766;28;20061;-85
2022/03/20 11:19:19;;;;;;;26.50;16.20;;;10.30;39.20;;;;;;5016877;28;20175;-84
2022/03/20 11:21:47;;;;;;;26.27;16.58;;;10.20;36.60;;;;;;5016210;28;20050;-84
2022/03/20 11:24:15;;;;;;;25.83;15.65;;;10.50;39.60;;;;;;5016047;28;20121;-84
2022/03/20 11:26:43;;;;;;;27.25;16.65;;;10.70;37.00;;;;;;5015850;28;20129;-84
2022/03/20 11:29:12;;;;;;;30.05;17.67;;;10.80;37.60;;;;;;5015114;28;20500;-84
2022/03/20 11:31:38;;;;;;;27.20;17.10;;;10.70;34.80;;;;;;5014160;28;20538;-84
2022/03/20 11:34:08;;;;;;;31.63;15.38;;;10.90;34.10;;;;;;5016531;28;20143;-84
2022/03/20 11:37:00;;;;;;;25.75;17.48;;;10.70;34.20;;;;;;5014585;28;20176;-84
2022/03/20 11:39:25;;;;;;;29.52;16.55;;;10.60;33.70;;;;;;5015222;28;20077;-84
2022/03/20 11:42:19;;;;;;;28.67;17.35;;;10.60;34.90;;;;;;5015903;28;20046;-84
2022/03/20 11:45:00;;;;;;;31.88;15.93;;;10.40;33.20;;;;;;5015048;28;20054;-84
2022/03/20 11:47:30;;;;;;;27.88;16.40;;;10.50;33.80;;;;;;5015281;28;20049;-84
2022/03/20 11:50:19;;;;;;;35.42;17.40;;;10.50;33.30;;;;;;5015494;28;20053;-83
2022/03/20 11:53:04;;;;;;;32.90;18.48;;;10.90;35.30;;;;;;5014128;28;20046;-84
2022/03/20 11:55:48;;;;;;;29.98;18.20;;;11.20;33.90;;;;;;5015032;28;20399;-84
2022/03/20 11:58:16;;;;;;;24.02;13.23;;;11.00;31.30;;;;;;5015139;28;20104;-84
2022/03/20 12:00:44;;;;;;;42.92;16.88;;;11.00;31.70;;;;;;5015334;28;20052;-84
2022/03/20 12:03:12;;;;;;;29.02;14.98;;;11.10;31.60;;;;;;5013321;28;20046;-84
2022/03/20 12:05:41;;;;;;;30.58;18.45;;;11.20;30.50;;;;;;5014924;28;20447;-84
2022/03/20 12:08:22;;;;;;;28.17;15.68;;;11.10;30.90;;;;;;5014768;28;20564;-84
2022/03/20 12:11:05;;;;;;;32.00;16.67;;;11.40;30.40;;;;;;5013509;28;20054;-84
2022/03/20 12:13:56;;;;;;;30.55;18.95;;;11.50;29.40;;;;;;5014935;28;20053;-84
2022/03/20 12:16:43;;;;;;;29.52;17.98;;;11.30;28.60;;;;;;5014841;28;20053;-84
2022/03/20 12:19:11;;;;;;;28.55;16.45;;;11.30;28.80;;;;;;5014693;28;20065;-84
2022/03/20 12:22:00;;;;;;;31.60;18.63;;;11.60;29.60;;;;;;5014358;28;20481;-84
2022/03/20 12:24:34;;;;;;;28.92;18.65;;;11.70;28.30;;;;;;5014964;28;20053;-84
2022/03/20 12:27:25;;;;;;;30.15;17.80;;;11.60;27.70;;;;;;5014595;28;20103;-84
2022/03/20 12:30:07;;;;;;;31.42;18.35;;;11.50;27.90;;;;;;5015400;28;20052;-84
2022/03/20 12:32:48;;;;;;;30.02;16.05;;;11.30;28.00;;;;;;5014594;28;20058;-84
2022/03/20 12:35:19;;;;;;;28.02;17.08;;;11.30;27.50;;;;;;5014310;28;20062;-84
2022/03/20 12:37:45;;;;;;;29.17;16.35;;;11.60;27.90;;;;;;5014223;28;20492;-83
2022/03/20 12:40:21;;;;;;;29.48;17.67;;;12.10;27.40;;;;;;5014332;28;20107;-83
2022/03/20 12:43:13;;;;;;;23.80;15.57;;;12.50;27.50;;;;;;5016470;28;20049;-84
2022/03/20 12:45:47;;;;;;;29.90;17.65;;;12.60;26.20;;;;;;5032081;28;20034;-84
2022/03/20 12:48:15;;;;;;;29.13;17.92;;;12.30;26.50;;;;;;5032975;28;20042;-84
2022/03/20 12:50:57;;;;;;;27.83;17.38;;;12.50;25.50;;;;;;5032274;28;20052;-84
2022/03/20 12:53:24;;;;;;;27.63;17.42;;;12.50;25.10;;;;;;5033542;28;20046;-84
2022/03/20 12:55:58;;;;;;;27.77;17.65;;;12.20;25.70;;;;;;5032710;28;20042;-84
2022/03/20 12:58:24;;;;;;;30.27;17.90;;;12.60;25.30;;;;;;5032955;28;20038;-84
2022/03/20 13:00:52;;;;;;;30.48;17.70;;;12.20;25.10;;;;;;5033278;28;20057;-84
2022/03/20 13:03:19;;;;;;;28.73;17.75;;;12.40;25.20;;;;;;5032565;28;20046;-84
2022/03/20 13:05:52;;;;;;;24.65;15.98;;;12.40;25.00;;;;;;5033033;28;20101;-83
2022/03/20 13:08:22;;;;;;;25.05;15.40;;;12.40;25.10;;;;;;5032358;28;20046;-82
2022/03/20 13:10:50;;;;;;;29.70;18.33;;;12.00;25.80;;;;;;5034169;28;20042;-84
2022/03/20 13:13:23;;;;;;;26.63;17.50;;;12.10;25.90;;;;;;5034263;28;20030;-83
2022/03/20 13:15:49;;;;;;;29.40;16.73;;;11.50;26.90;;;;;;5031022;28;20481;-84
2022/03/20 13:18:15;;;;;;;32.00;19.33;;;11.70;26.80;;;;;;5014427;28;20077;-84